Time;durP1;ratioP1;P1;durP2;ratioP2;P2;SDS_P1;SDS_P2;PMS_P1;PMS_P2;Temp;Humidity;BMP_temperature;BMP_pressure;BME280_temperature;BME280_humidity;BME280_pressure;Samples;Min_cycle;Max_cycle;Signal;HPM_P1;HPM_P2
2022/04/04 00:01:31;;;;;;;26.13;13.75;;;;;;;;;;5098707;27;20015;-50
2022/04/04 00:03:57;;;;;;;23.90;12.93;;;;;;;;;;5134903;27;20030;-49
2022/04/04 00:06:29;;;;;;;24.27;12.35;;;;;;;;;;5134920;27;20026;-47
2022/04/04 00:08:58;;;;;;;25.48;12.68;;;;;;;;;;5134852;27;20545;-47
2022/04/04 00:11:24;;;;;;;25.45;13.48;;;;;;;;;;5134912;27;20024;-48
2022/04/04 00:13:51;;;;;;;28.10;14.13;;;;;;;;;;5134754;27;20452;-49
2022/04/04 00:16:17;;;;;;;31.55;14.43;;;;;;;;;;5116284;27;20470;-48
2022/04/04 00:18:43;;;;;;;28.67;13.93;;;;;;;;;;5134407;27;20046;-47
2022/04/04 00:21:11;;;;;;;33.95;15.07;;;;;;;;;;5134784;27;20072;-49
2022/04/04 00:23:37;;;;;;;31.95;16.25;;;;;;;;;;5134745;27;20030;-49
2022/04/04 00:26:05;;;;;;;35.55;16.45;;;;;;;;;;5116554;27;20102;-48
2022/04/04 00:28:31;;;;;;;35.03;15.57;;;;;;;;;;5134068;27;20027;-48
2022/04/04 00:30:58;;;;;;;40.08;16.65;;;;;;;;;;5134520;27;20424;-49
2022/04/04 00:33:24;;;;;;;37.53;15.30;;;;;;;;;;5134281;27;20023;-45
2022/04/04 00:35:50;;;;;;;41.13;15.85;;;;;;;;;;5134366;27;20071;-48
2022/04/04 00:38:18;;;;;;;32.38;14.68;;;;;;;;;;5134369;27;20042;-49
2022/04/04 00:40:47;;;;;;;36.63;14.90;;;;;;;;;;5134454;27;20015;-49
2022/04/04 00:43:13;;;;;;;40.83;16.88;;;;;;;;;;5134292;27;20039;-47
2022/04/04 00:45:44;;;;;;;36.42;15.20;;;;;;;;;;5134244;27;20057;-49
2022/04/04 00:48:10;;;;;;;39.13;17.27;;;;;;;;;;5134274;27;20471;-49
2022/04/04 00:50:36;;;;;;;38.97;16.08;;;;;;;;;;5134153;28;20053;-46
2022/04/04 00:53:03;;;;;;;35.03;16.52;;;;;;;;;;5134118;28;20047;-48
2022/04/04 00:55:32;;;;;;;40.13;18.42;;;;;;;;;;5134477;28;20060;-48
2022/04/04 00:58:05;;;;;;;39.28;16.83;;;;;;;;;;5133997;28;20027;-48
2022/04/04 01:00:34;;;;;;;36.60;17.20;;;;;;;;;;5134026;28;20019;-48
2022/04/04 01:03:03;;;;;;;46.75;17.80;;;;;;;;;;5134365;28;20030;-48
2022/04/04 01:05:30;;;;;;;39.58;17.90;;;;;;;;;;5134081;28;20018;-48
2022/04/04 01:07:56;;;;;;;42.45;16.83;;;;;;;;;;5134030;28;20075;-47
2022/04/04 01:10:25;;;;;;;43.25;16.33;;;;;;;;;;5134173;28;20019;-48
2022/04/04 01:12:54;;;;;;;36.08;14.15;;;;;;;;;;5134128;28;20023;-48
2022/04/04 01:15:23;;;;;;;34.30;15.07;;;;;;;;;;5133973;28;20042;-50
2022/04/04 01:17:49;;;;;;;34.85;15.93;;;;;;;;;;5133775;28;20440;-50
2022/04/04 01:20:16;;;;;;;35.38;16.00;;;;;;;;;;5134025;28;20031;-48
2022/04/04 01:22:46;;;;;;;39.90;15.57;;;;;;;;;;5134228;28;20028;-54
2022/04/04 01:25:12;;;;;;;34.30;14.98;;;;;;;;;;5133917;28;20118;-48
2022/04/04 01:27:42;;;;;;;42.03;16.15;;;;;;;;;;5133961;28;20485;-48
2022/04/04 01:30:10;;;;;;;41.65;17.85;;;;;;;;;;5133761;28;20051;-48
2022/04/04 01:32:36;;;;;;;42.70;19.70;;;;;;;;;;5133852;28;20067;-47
2022/04/04 01:35:03;;;;;;;55.80;21.10;;;;;;;;;;5134075;28;20390;-48
2022/04/04 01:37:29;;;;;;;53.90;23.90;;;;;;;;;;5115232;28;20448;-48
2022/04/04 01:39:55;;;;;;;70.70;27.98;;;;;;;;;;5134700;27;20031;-46
2022/04/04 01:42:22;;;;;;;77.78;30.38;;;;;;;;;;5137575;27;20023;-48
2022/04/04 01:44:48;;;;;;;82.20;31.00;;;;;;;;;;5119225;27;20068;-45
2022/04/04 01:47:14;;;;;;;98.32;37.63;;;;;;;;;;5137705;27;20026;-47
2022/04/04 01:49:40;;;;;;;108.22;42.25;;;;;;;;;;5137559;27;20027;-47
2022/04/04 01:52:06;;;;;;;120.10;44.08;;;;;;;;;;5137664;27;20042;-46
2022/04/04 01:54:32;;;;;;;118.80;44.78;;;;;;;;;;5137416;27;20055;-47
2022/04/04 01:56:59;;;;;;;113.43;43.72;;;;;;;;;;5137399;27;20023;-47
2022/04/04 01:59:25;;;;;;;102.03;41.00;;;;;;;;;;5137205;27;20031;-48
2022/04/04 02:01:51;;;;;;;118.78;40.05;;;;;;;;;;5137420;27;20156;-46
2022/04/04 02:04:19;;;;;;;95.53;37.03;;;;;;;;;;5137169;27;20027;-45
2022/04/04 02:06:46;;;;;;;92.57;34.40;;;;;;;;;;5137346;27;20034;-48
2022/04/04 02:09:15;;;;;;;78.13;31.70;;;;;;;;;;5137218;27;20023;-46
2022/04/04 02:11:43;;;;;;;80.53;31.13;;;;;;;;;;5137349;27;20029;-46
2022/04/04 02:14:09;;;;;;;81.88;30.70;;;;;;;;;;5136898;27;20085;-48
2022/04/04 02:16:35;;;;;;;77.75;30.42;;;;;;;;;;5136926;27;20137;-46
2022/04/04 02:19:01;;;;;;;70.10;29.27;;;;;;;;;;5137155;27;20406;-48
2022/04/04 02:21:27;;;;;;;68.05;29.25;;;;;;;;;;5137198;27;20023;-48
2022/04/04 02:23:53;;;;;;;72.80;29.15;;;;;;;;;;5137348;27;20024;-48
2022/04/04 02:26:20;;;;;;;59.75;25.38;;;;;;;;;;5137011;27;20026;-47
2022/04/04 02:28:47;;;;;;;64.32;25.55;;;;;;;;;;5136588;27;20035;-46
2022/04/04 02:31:13;;;;;;;58.22;22.60;;;;;;;;;;5136820;27;20076;-56
2022/04/04 02:33:39;;;;;;;56.42;22.10;;;;;;;;;;5136842;27;20023;-49
2022/04/04 02:36:05;;;;;;;45.95;18.63;;;;;;;;;;5136611;27;20030;-46
2022/04/04 02:38:31;;;;;;;38.47;17.42;;;;;;;;;;5136508;27;20039;-46
2022/04/04 02:40:58;;;;;;;34.00;16.40;;;;;;;;;;5136918;27;20025;-45
2022/04/04 02:43:24;;;;;;;35.47;17.08;;;;;;;;;;5136385;27;20076;-43
2022/04/04 02:45:53;;;;;;;38.95;17.58;;;;;;;;;;5136620;27;20026;-47
2022/04/04 02:48:22;;;;;;;37.70;17.60;;;;;;;;;;5136323;27;20510;-48
2022/04/04 02:50:52;;;;;;;35.70;16.73;;;;;;;;;;5135998;27;20089;-48
2022/04/04 02:53:18;;;;;;;28.88;13.85;;;;;;;;;;5136384;27;20050;-47
2022/04/04 02:58:29;;;;;;;19.63;11.05;;;;;;;;;;5136346;27;20418;-47
2022/04/04 03:00:55;;;;;;;22.40;11.98;;;;;;;;;;5136353;27;20023;-49
2022/04/04 03:03:21;;;;;;;19.45;11.52;;;;;;;;;;5136150;27;20019;-45
2022/04/04 03:05:47;;;;;;;20.42;12.45;;;;;;;;;;5136200;27;20053;-48
2022/04/04 03:08:14;;;;;;;22.25;12.23;;;;;;;;;;5136262;27;20080;-46
2022/04/04 03:10:40;;;;;;;23.30;12.45;;;;;;;;;;5136016;27;20024;-47
2022/04/04 03:13:06;;;;;;;21.05;11.15;;;;;;;;;;5135858;27;20027;-49
2022/04/04 03:15:36;;;;;;;31.60;13.90;;;;;;;;;;5135968;27;20015;-49
2022/04/04 03:18:03;;;;;;;32.70;14.80;;;;;;;;;;5135665;27;20046;-46
2022/04/04 03:20:31;;;;;;;38.53;16.58;;;;;;;;;;5135806;27;20059;-48
2022/04/04 03:22:57;;;;;;;47.03;21.15;;;;;;;;;;5135771;27;20042;-49
2022/04/04 03:25:25;;;;;;;73.05;27.00;;;;;;;;;;5135623;27;20019;-45
2022/04/04 03:27:51;;;;;;;85.75;31.20;;;;;;;;;;5135906;27;20031;-46
2022/04/04 03:30:18;;;;;;;84.90;33.70;;;;;;;;;;5135576;27;20034;-48
2022/04/04 03:32:45;;;;;;;91.88;35.08;;;;;;;;;;5135611;27;20388;-48
2022/04/04 03:35:14;;;;;;;93.65;39.03;;;;;;;;;;5135803;27;20011;-49
2022/04/04 03:37:41;;;;;;;98.32;37.67;;;;;;;;;;5135339;27;20026;-49
2022/04/04 03:40:09;;;;;;;95.82;36.60;;;;;;;;;;5135367;27;20106;-48
2022/04/04 03:42:37;;;;;;;96.72;36.85;;;;;;;;;;5135345;27;20051;-48
2022/04/04 03:45:06;;;;;;;116.00;44.60;;;;;;;;;;5135156;27;20034;-47
2022/04/04 03:47:35;;;;;;;91.30;35.78;;;;;;;;;;5135067;27;20031;-44
2022/04/04 03:50:01;;;;;;;96.72;36.72;;;;;;;;;;5135286;27;20502;-48
2022/04/04 03:52:27;;;;;;;95.00;38.60;;;;;;;;;;5121660;27;20391;-47
2022/04/04 03:54:53;;;;;;;96.53;36.25;;;;;;;;;;5114772;28;20020;-47
2022/04/04 03:57:19;;;;;;;94.80;34.28;;;;;;;;;;5114239;28;20019;-46
2022/04/04 03:59:46;;;;;;;69.05;27.60;;;;;;;;;;5114334;28;20046;-45
2022/04/04 04:02:12;;;;;;;63.15;27.33;;;;;;;;;;5113925;28;20475;-47
2022/04/04 04:04:39;;;;;;;75.88;30.02;;;;;;;;;;5113943;28;20026;-47
2022/04/04 04:07:06;;;;;;;73.53;28.60;;;;;;;;;;5113586;28;20059;-45
2022/04/04 04:09:34;;;;;;;80.18;30.42;;;;;;;;;;5112977;28;20058;-48
2022/04/04 04:12:00;;;;;;;68.13;29.15;;;;;;;;;;5112554;28;20028;-42
2022/04/04 04:14:26;;;;;;;77.63;32.00;;;;;;;;;;5112287;28;20101;-43
2022/04/04 04:16:52;;;;;;;76.65;31.45;;;;;;;;;;5109544;28;20035;-43
2022/04/04 04:22:03;;;;;;;81.55;31.63;;;;;;;;;;5111284;28;20510;-46
2022/04/04 04:24:29;;;;;;;70.57;30.63;;;;;;;;;;5111746;28;20065;-47
2022/04/04 04:26:56;;;;;;;90.03;35.47;;;;;;;;;;5112233;28;20023;-48
2022/04/04 04:29:22;;;;;;;101.53;39.13;;;;;;;;;;5112178;28;20055;-47
2022/04/04 04:31:48;;;;;;;109.97;44.70;;;;;;;;;;5111964;28;20028;-49
2022/04/04 04:34:15;;;;;;;128.45;49.28;;;;;;;;;;5112304;28;20078;-47
2022/04/04 04:36:43;;;;;;;169.20;59.50;;;;;;;;;;5112467;28;20371;-46
2022/04/04 04:39:09;;;;;;;181.60;61.72;;;;;;;;;;5112188;28;20494;-47
2022/04/04 04:41:36;;;;;;;125.70;48.58;;;;;;;;;;5112504;28;20015;-48
2022/04/04 04:44:03;;;;;;;87.97;32.45;;;;;;;;;;5094721;28;20027;-46
2022/04/04 04:46:30;;;;;;;67.55;27.40;;;;;;;;;;5112237;28;20020;-46
2022/04/04 04:48:56;;;;;;;54.60;24.13;;;;;;;;;;5112172;28;20048;-44
2022/04/04 04:51:22;;;;;;;47.78;22.35;;;;;;;;;;5112381;28;20067;-47
2022/04/04 04:53:48;;;;;;;51.08;23.08;;;;;;;;;;5112016;28;20028;-45
2022/04/04 04:56:14;;;;;;;68.05;29.88;;;;;;;;;;5112727;28;20019;-46
2022/04/04 04:58:40;;;;;;;68.00;32.67;;;;;;;;;;5112416;28;20030;-46
2022/04/04 05:01:07;;;;;;;60.47;26.08;;;;;;;;;;5112308;28;20360;-47
2022/04/04 05:03:33;;;;;;;49.42;24.20;;;;;;;;;;5112089;28;20020;-47
2022/04/04 05:05:59;;;;;;;53.08;26.60;;;;;;;;;;5113632;28;20016;-48
2022/04/04 05:08:25;;;;;;;41.95;20.45;;;;;;;;;;5113464;28;20024;-46
2022/04/04 05:10:52;;;;;;;40.17;18.98;;;;;;;;;;5113774;28;20407;-46
2022/04/04 05:13:19;;;;;;;41.60;19.30;;;;;;;;;;5113448;28;20024;-47
2022/04/04 05:15:45;;;;;;;40.35;20.65;;;;;;;;;;5115946;28;20020;-46
2022/04/04 05:18:11;;;;;;;46.03;21.15;;;;;;;;;;5117616;28;20050;-48
2022/04/04 05:20:37;;;;;;;41.72;22.00;;;;;;;;;;5117749;28;20046;-45
2022/04/04 05:23:03;;;;;;;52.17;25.60;;;;;;;;;;5117454;28;20028;-45
2022/04/04 05:25:30;;;;;;;60.55;27.95;;;;;;;;;;5117411;28;20059;-48
2022/04/04 05:27:56;;;;;;;52.35;25.00;;;;;;;;;;5117389;28;20122;-48
2022/04/04 05:30:23;;;;;;;65.22;29.02;;;;;;;;;;5117324;28;20024;-49
2022/04/04 05:32:49;;;;;;;70.50;26.35;;;;;;;;;;5117409;28;20398;-49
2022/04/04 05:35:17;;;;;;;61.08;27.67;;;;;;;;;;5117299;28;20523;-46
2022/04/04 05:37:45;;;;;;;58.25;27.13;;;;;;;;;;5117126;28;20020;-46
2022/04/04 05:40:11;;;;;;;58.30;27.50;;;;;;;;;;5117005;28;20066;-49
2022/04/04 05:42:37;;;;;;;59.42;25.77;;;;;;;;;;5098497;28;20402;-48
2022/04/04 05:45:03;;;;;;;58.30;26.73;;;;;;;;;;5117100;28;20106;-48
2022/04/04 05:47:30;;;;;;;58.15;27.00;;;;;;;;;;5117230;28;20031;-49
2022/04/04 05:49:56;;;;;;;60.90;26.63;;;;;;;;;;5116908;28;20491;-48
2022/04/04 05:52:26;;;;;;;55.97;25.35;;;;;;;;;;5116859;28;20026;-46
2022/04/04 05:54:57;;;;;;;56.65;26.67;;;;;;;;;;5116786;28;20023;-45
2022/04/04 05:57:24;;;;;;;57.53;27.27;;;;;;;;;;5116960;28;20417;-47
2022/04/04 05:59:51;;;;;;;62.13;28.75;;;;;;;;;;5116924;28;20032;-45
2022/04/04 06:02:17;;;;;;;59.63;29.63;;;;;;;;;;5116638;28;20030;-43
2022/04/04 06:04:43;;;;;;;58.95;27.38;;;;;;;;;;5116702;28;20023;-44
2022/04/04 06:07:09;;;;;;;57.47;24.58;;;;;;;;;;5116617;28;20390;-44
2022/04/04 06:09:35;;;;;;;52.75;25.58;;;;;;;;;;5116537;28;20020;-47
2022/04/04 06:12:01;;;;;;;63.28;27.27;;;;;;;;;;5116829;28;20020;-44
2022/04/04 06:14:27;;;;;;;67.55;31.30;;;;;;;;;;5116345;28;20077;-44
2022/04/04 06:16:53;;;;;;;61.10;28.00;;;;;;;;;;5116342;28;20020;-43
2022/04/04 06:19:22;;;;;;;63.38;27.95;;;;;;;;;;5116085;28;20096;-45
2022/04/04 06:21:48;;;;;;;61.15;27.90;;;;;;;;;;5116284;28;20024;-42
2022/04/04 06:24:14;;;;;;;65.88;28.20;;;;;;;;;;5116097;28;20038;-43
2022/04/04 06:26:41;;;;;;;61.67;26.33;;;;;;;;;;5115481;28;20024;-44
2022/04/04 06:29:10;;;;;;;64.85;28.95;;;;;;;;;;5116075;28;20027;-43
2022/04/04 06:31:37;;;;;;;129.63;56.83;;;;;;;;;;5115919;28;20026;-43
2022/04/04 06:34:08;;;;;;;101.03;48.55;;;;;;;;;;5115993;28;20019;-44
2022/04/04 06:36:35;;;;;;;73.20;37.80;;;;;;;;;;5116401;28;20044;-45
2022/04/04 06:39:01;;;;;;;72.70;32.15;;;;;;;;;;5116309;28;20035;-45
2022/04/04 06:41:27;;;;;;;49.28;24.38;;;;;;;;;;5115920;28;20095;-45
2022/04/04 06:43:58;;;;;;;47.17;23.55;;;;;;;;;;5096889;28;20034;-45
2022/04/04 06:46:25;;;;;;;51.23;26.97;;;;;;;;;;5115918;28;20448;-45
2022/04/04 06:48:52;;;;;;;51.28;24.42;;;;;;;;;;5115704;28;20028;-43
2022/04/04 06:51:19;;;;;;;46.20;23.10;;;;;;;;;;5115562;28;20108;-45
2022/04/04 06:53:45;;;;;;;51.25;25.75;;;;;;;;;;5115788;28;20566;-44
2022/04/04 06:56:12;;;;;;;53.30;25.95;;;;;;;;;;5115681;28;20135;-46
2022/04/04 06:58:38;;;;;;;49.35;23.95;;;;;;;;;;5115504;28;20036;-44
2022/04/04 07:01:05;;;;;;;47.70;22.92;;;;;;;;;;5115712;28;20527;-45
2022/04/04 07:03:33;;;;;;;50.17;23.67;;;;;;;;;;5115721;28;20375;-44
2022/04/04 07:05:59;;;;;;;45.38;22.08;;;;;;;;;;5115505;28;20024;-44
2022/04/04 07:08:30;;;;;;;46.88;21.27;;;;;;;;;;5115388;28;20031;-45
2022/04/04 07:10:56;;;;;;;43.83;19.50;;;;;;;;;;5115483;28;20019;-45
2022/04/04 07:13:22;;;;;;;44.13;19.45;;;;;;;;;;5115510;28;20023;-46
2022/04/04 07:15:48;;;;;;;43.80;20.42;;;;;;;;;;5115212;28;20020;-46
2022/04/04 07:18:14;;;;;;;36.58;18.92;;;;;;;;;;5115057;28;20028;-46
2022/04/04 07:20:40;;;;;;;45.08;19.60;;;;;;;;;;5115169;28;20118;-46
2022/04/04 07:23:09;;;;;;;36.70;17.73;;;;;;;;;;5115077;28;20019;-44
2022/04/04 07:25:36;;;;;;;26.35;14.45;;;;;;;;;;5115295;28;20056;-45
2022/04/04 07:28:02;;;;;;;32.08;14.70;;;;;;;;;;5115047;28;20050;-45
2022/04/04 07:30:28;;;;;;;33.20;14.98;;;;;;;;;;5115141;28;20099;-45
2022/04/04 07:32:54;;;;;;;27.48;14.05;;;;;;;;;;5114870;28;20019;-45
2022/04/04 07:35:21;;;;;;;21.25;12.20;;;;;;;;;;5115411;28;20524;-42
2022/04/04 07:37:48;;;;;;;16.02;9.13;;;;;;;;;;5095520;28;20024;-44
2022/04/04 07:40:15;;;;;;;19.02;10.45;;;;;;;;;;5115036;28;20395;-43
2022/04/04 07:42:41;;;;;;;24.67;10.85;;;;;;;;;;5115000;28;20022;-42
2022/04/04 07:45:09;;;;;;;12.32;7.38;;;;;;;;;;5114752;28;20069;-42
2022/04/04 07:47:35;;;;;;;12.93;7.50;;;;;;;;;;5115049;28;20031;-42
2022/04/04 07:50:02;;;;;;;13.57;7.25;;;;;;;;;;5114530;28;20161;-43
2022/04/04 07:52:28;;;;;;;13.52;7.45;;;;;;;;;;5096354;28;20032;-45
2022/04/04 07:54:57;;;;;;;14.98;8.35;;;;;;;;;;5114854;28;20019;-44
2022/04/04 07:57:23;;;;;;;10.98;7.03;;;;;;;;;;5114461;28;20023;-42
2022/04/04 07:59:52;;;;;;;12.13;7.57;;;;;;;;;;5114621;28;20043;-44
2022/04/04 08:02:19;;;;;;;13.07;7.63;;;;;;;;;;5114417;28;20475;-44
2022/04/04 08:04:47;;;;;;;15.38;8.38;;;;;;;;;;5114460;28;20467;-46
2022/04/04 08:07:15;;;;;;;12.65;7.15;;;;;;;;;;5114342;28;20395;-43
2022/04/04 08:09:41;;;;;;;13.13;7.97;;;;;;;;;;5114364;28;20024;-46
2022/04/04 08:12:07;;;;;;;10.05;6.45;;;;;;;;;;5114560;28;20019;-43
2022/04/04 08:14:36;;;;;;;14.48;8.15;;;;;;;;;;5114402;28;20042;-45
2022/04/04 08:17:03;;;;;;;13.00;7.72;;;;;;;;;;5114242;28;20504;-44
2022/04/04 08:19:30;;;;;;;9.77;6.38;;;;;;;;;;5114166;28;20244;-43
2022/04/04 08:21:56;;;;;;;9.85;6.32;;;;;;;;;;5114414;28;20360;-48
2022/04/04 08:24:22;;;;;;;8.63;6.05;;;;;;;;;;5114170;28;20023;-43
2022/04/04 08:26:49;;;;;;;14.02;6.03;;;;;;;;;;5114394;28;20026;-42
2022/04/04 08:29:15;;;;;;;15.93;7.82;;;;;;;;;;5114046;28;20028;-43
2022/04/04 08:31:41;;;;;;;11.55;7.28;;;;;;;;;;5114364;28;20463;-42
2022/04/04 08:34:07;;;;;;;9.13;6.13;;;;;;;;;;5114089;28;20034;-47
2022/04/04 08:36:33;;;;;;;13.18;7.22;;;;;;;;;;5113932;28;20011;-41
2022/04/04 08:39:00;;;;;;;10.65;6.68;;;;;;;;;;5113882;28;20036;-41
2022/04/04 08:41:26;;;;;;;15.15;8.10;;;;;;;;;;5113970;28;20464;-42
2022/04/04 08:43:57;;;;;;;12.45;7.60;;;;;;;;;;5095855;28;20028;-43
2022/04/04 08:46:24;;;;;;;11.60;6.20;;;;;;;;;;5113928;28;20026;-44
2022/04/04 08:48:52;;;;;;;16.10;9.65;;;;;;;;;;5113487;28;20471;-44
2022/04/04 08:51:18;;;;;;;11.23;6.25;;;;;;;;;;5113570;28;20043;-42
2022/04/04 08:53:44;;;;;;;10.25;5.47;;;;;;;;;;5114052;28;20032;-42
2022/04/04 08:56:11;;;;;;;7.95;5.38;;;;;;;;;;5113772;28;20038;-42
2022/04/04 08:58:40;;;;;;;8.95;5.85;;;;;;;;;;5113643;28;20115;-42
2022/04/04 09:01:06;;;;;;;12.23;6.80;;;;;;;;;;5113649;28;20059;-43
2022/04/04 09:03:33;;;;;;;9.95;6.35;;;;;;;;;;5113729;28;20047;-42
2022/04/04 09:06:01;;;;;;;11.77;6.53;;;;;;;;;;5113486;28;20027;-44
2022/04/04 09:08:30;;;;;;;7.97;5.95;;;;;;;;;;5113778;28;20107;-43
2022/04/04 09:11:00;;;;;;;11.88;5.95;;;;;;;;;;5113676;28;20020;-43
2022/04/04 09:13:27;;;;;;;8.82;5.75;;;;;;;;;;5113737;28;20084;-47
2022/04/04 09:15:53;;;;;;;7.97;5.07;;;;;;;;;;5113341;28;20024;-46
2022/04/04 09:18:25;;;;;;;9.48;5.78;;;;;;;;;;5113745;28;20076;-46
2022/04/04 09:20:51;;;;;;;7.95;5.65;;;;;;;;;;5095224;28;20035;-45
2022/04/04 09:23:17;;;;;;;8.68;5.78;;;;;;;;;;5113693;28;20066;-46
2022/04/04 09:25:46;;;;;;;8.52;5.65;;;;;;;;;;5113687;28;20039;-46
2022/04/04 09:28:17;;;;;;;9.43;6.25;;;;;;;;;;5113720;28;20020;-45
2022/04/04 09:30:44;;;;;;;11.18;6.50;;;;;;;;;;5113401;28;20536;-46
2022/04/04 09:33:14;;;;;;;9.35;6.50;;;;;;;;;;5113325;28;20490;-47
2022/04/04 09:35:47;;;;;;;10.73;7.10;;;;;;;;;;5113376;28;20084;-46
2022/04/04 09:38:16;;;;;;;11.38;6.43;;;;;;;;;;5113359;28;20039;-48
2022/04/04 09:40:43;;;;;;;9.90;6.43;;;;;;;;;;5113358;28;20065;-47
2022/04/04 09:43:09;;;;;;;10.68;6.38;;;;;;;;;;5113138;28;20115;-45
2022/04/04 09:45:35;;;;;;;14.65;6.03;;;;;;;;;;5113221;28;20051;-44
2022/04/04 09:48:06;;;;;;;9.73;6.25;;;;;;;;;;5113276;28;20038;-43
2022/04/04 09:50:32;;;;;;;8.40;5.03;;;;;;;;;;5113162;28;20048;-48
2022/04/04 09:52:59;;;;;;;8.52;5.07;;;;;;;;;;5113255;28;20382;-49
2022/04/04 09:55:29;;;;;;;9.85;5.72;;;;;;;;;;5113436;28;20383;-48
2022/04/04 09:57:57;;;;;;;10.63;5.20;;;;;;;;;;5113247;28;20076;-48
2022/04/04 10:00:26;;;;;;;17.10;8.18;;;;;;;;;;5113262;28;20031;-48
2022/04/04 10:02:55;;;;;;;11.50;6.32;;;;;;;;;;5116689;28;20020;-48
2022/04/04 10:05:22;;;;;;;8.27;5.25;;;;;;;;;;5098366;28;20567;-48
2022/04/04 10:07:50;;;;;;;5.57;4.50;;;;;;;;;;5116710;28;20611;-48
2022/04/04 10:10:18;;;;;;;8.52;5.28;;;;;;;;;;5116791;28;20024;-47
2022/04/04 10:12:45;;;;;;;8.20;4.70;;;;;;;;;;5116598;28;20143;-44
2022/04/04 10:15:11;;;;;;;8.75;5.15;;;;;;;;;;5116418;28;20031;-45
2022/04/04 10:17:40;;;;;;;7.45;5.35;;;;;;;;;;5116672;28;20107;-45
2022/04/04 10:20:06;;;;;;;7.85;5.45;;;;;;;;;;5116677;28;20042;-45
2022/04/04 10:22:34;;;;;;;14.35;7.57;;;;;;;;;;5116579;28;20026;-48
2022/04/04 10:25:02;;;;;;;8.48;5.88;;;;;;;;;;5116508;28;20027;-46
2022/04/04 10:27:29;;;;;;;8.57;5.63;;;;;;;;;;5116134;28;20098;-47
2022/04/04 10:30:05;;;;;;;11.27;5.80;;;;;;;;;;5116301;28;20054;-49
2022/04/04 10:32:32;;;;;;;9.80;5.13;;;;;;;;;;5116288;28;20491;-48
2022/04/04 10:34:58;;;;;;;8.02;5.55;;;;;;;;;;5116133;28;20023;-49
2022/04/04 10:37:31;;;;;;;6.38;4.85;;;;;;;;;;5116114;28;20467;-45
2022/04/04 10:39:57;;;;;;;10.45;4.88;;;;;;;;;;5115866;28;20091;-50
2022/04/04 10:42:30;;;;;;;7.95;5.47;;;;;;;;;;5116002;28;20387;-49
2022/04/04 10:45:03;;;;;;;7.75;5.20;;;;;;;;;;5116512;28;20030;-50
2022/04/04 10:47:31;;;;;;;8.65;6.40;;;;;;;;;;5115611;28;20024;-49
2022/04/04 10:49:58;;;;;;;10.50;5.47;;;;;;;;;;5115941;28;20100;-49
2022/04/04 10:52:40;;;;;;;9.60;5.80;;;;;;;;;;5115845;28;20076;-44
2022/04/04 10:55:25;;;;;;;7.82;5.72;;;;;;;;;;5115689;28;20510;-47
2022/04/04 10:57:52;;;;;;;10.80;5.82;;;;;;;;;;5115736;28;20027;-48
2022/04/04 11:00:18;;;;;;;9.88;5.43;;;;;;;;;;5115604;28;20036;-50
2022/04/04 11:02:45;;;;;;;7.75;5.75;;;;;;;;;;5115636;28;20076;-47
2022/04/04 11:08:06;;;;;;;11.25;6.25;;;;;;;;;;5115845;28;20042;-49
2022/04/04 11:10:47;;;;;;;8.73;6.47;;;;;;;;;;5115510;28;20111;-49
2022/04/04 11:13:16;;;;;;;8.63;5.28;;;;;;;;;;5115261;28;20020;-46
2022/04/04 11:15:49;;;;;;;6.97;5.50;;;;;;;;;;5115345;28;20471;-53
2022/04/04 11:18:15;;;;;;;8.45;5.43;;;;;;;;;;5115335;28;20066;-45
2022/04/04 11:20:50;;;;;;;9.10;5.82;;;;;;;;;;5115414;28;20450;-45
2022/04/04 11:23:17;;;;;;;8.82;5.72;;;;;;;;;;5115581;28;20405;-50
2022/04/04 11:25:52;;;;;;;9.40;5.72;;;;;;;;;;5115344;28;20066;-49
2022/04/04 11:28:22;;;;;;;7.95;5.72;;;;;;;;;;5115204;28;20098;-49
2022/04/04 11:30:51;;;;;;;11.48;6.00;;;;;;;;;;5114841;28;20106;-49
2022/04/04 11:33:22;;;;;;;8.40;5.70;;;;;;;;;;5115004;28;20026;-50
2022/04/04 11:35:48;;;;;;;9.07;5.82;;;;;;;;;;5115199;28;20383;-48
2022/04/04 11:38:18;;;;;;;9.27;6.10;;;;;;;;;;5114969;28;20023;-47
2022/04/04 11:40:49;;;;;;;10.25;6.75;;;;;;;;;;5114720;28;20035;-45
2022/04/04 11:43:19;;;;;;;9.32;5.85;;;;;;;;;;5114787;28;20023;-46
2022/04/04 11:45:47;;;;;;;7.03;5.35;;;;;;;;;;5114703;28;20427;-48
2022/04/04 11:48:16;;;;;;;7.20;5.78;;;;;;;;;;5114647;28;20028;-46
2022/04/04 11:50:43;;;;;;;9.02;5.82;;;;;;;;;;5114415;28;20459;-47
2022/04/04 11:53:10;;;;;;;10.20;6.30;;;;;;;;;;5114570;28;20032;-47
2022/04/04 11:55:37;;;;;;;8.52;6.40;;;;;;;;;;5114753;28;20028;-45
2022/04/04 11:58:12;;;;;;;10.68;6.70;;;;;;;;;;5114632;28;20023;-44
2022/04/04 12:00:39;;;;;;;9.10;6.40;;;;;;;;;;5114389;28;20115;-48
2022/04/04 12:03:09;;;;;;;8.65;6.53;;;;;;;;;;5114632;28;20023;-47
2022/04/04 12:05:36;;;;;;;8.52;6.18;;;;;;;;;;5114327;28;20491;-48
2022/04/04 12:08:06;;;;;;;10.73;7.00;;;;;;;;;;5114613;28;20035;-47
2022/04/04 12:10:32;;;;;;;12.05;6.88;;;;;;;;;;5114292;28;20387;-47
2022/04/04 12:12:59;;;;;;;9.90;6.25;;;;;;;;;;5114231;28;20019;-48
2022/04/04 12:15:32;;;;;;;10.13;6.07;;;;;;;;;;5114477;28;20028;-46
2022/04/04 12:18:01;;;;;;;12.35;6.65;;;;;;;;;;5114351;28;20031;-45
2022/04/04 12:20:48;;;;;;;10.95;7.00;;;;;;;;;;5114295;28;20089;-48
2022/04/04 12:26:01;;;;;;;8.80;6.13;;;;;;;;;;5114217;28;20119;-46
2022/04/04 12:28:33;;;;;;;10.80;6.55;;;;;;;;;;5114172;28;20023;-46
2022/04/04 12:31:15;;;;;;;8.43;5.85;;;;;;;;;;5113961;28;20020;-46
2022/04/04 12:33:41;;;;;;;8.68;6.15;;;;;;;;;;5113905;28;20030;-47
2022/04/04 12:36:07;;;;;;;11.35;6.60;;;;;;;;;;5114101;28;20024;-48
2022/04/04 12:38:38;;;;;;;10.43;6.72;;;;;;;;;;5114234;28;20391;-47
2022/04/04 12:41:15;;;;;;;10.82;6.82;;;;;;;;;;5114178;28;20182;-47
2022/04/04 12:43:45;;;;;;;9.50;6.68;;;;;;;;;;5114157;28;20052;-46
2022/04/04 12:46:45;;;;;;;9.45;6.80;;;;;;;;;;5114197;28;20030;-50
2022/04/04 12:49:15;;;;;;;9.63;7.28;;;;;;;;;;5031385;28;20041;-42
2022/04/04 12:51:51;;;;;;;10.18;7.20;;;;;;;;;;5031298;28;20051;-48
2022/04/04 12:54:28;;;;;;;12.10;7.03;;;;;;;;;;5031173;28;20060;-49
2022/04/04 12:56:54;;;;;;;11.13;6.93;;;;;;;;;;5031205;28;20046;-50
2022/04/04 12:59:24;;;;;;;9.65;6.65;;;;;;;;;;5031288;28;20037;-49
2022/04/04 13:02:09;;;;;;;8.27;6.75;;;;;;;;;;5031126;28;20029;-48
2022/04/04 13:04:36;;;;;;;10.77;7.15;;;;;;;;;;5031158;28;20038;-48
2022/04/04 13:07:02;;;;;;;10.80;6.78;;;;;;;;;;5031304;28;20037;-48
2022/04/04 13:09:29;;;;;;;9.20;6.55;;;;;;;;;;5031178;28;20034;-45
2022/04/04 13:11:56;;;;;;;13.75;8.93;;;;;;;;;;5031053;28;20036;-48
2022/04/04 13:14:22;;;;;;;12.18;8.13;;;;;;;;;;5031074;28;20036;-49
2022/04/04 13:16:54;;;;;;;21.73;13.15;;;;;;;;;;5030923;28;20037;-49
2022/04/04 13:19:20;;;;;;;;;;;;;;;;;;5031452;28;20125;-47
2022/04/04 13:21:50;;;;;;;18.63;10.27;;;;;;;;;;5031065;28;20004;-49
2022/04/04 13:24:16;;;;;;;14.18;8.48;;;;;;;;;;5054982;28;20063;-48
2022/04/04 13:26:43;;;;;;;43.50;16.83;;;;;;;;;;5113706;28;20020;-47
2022/04/04 13:29:09;;;;;;;98.10;31.80;;;;;;;;;;5113645;28;20027;-49
2022/04/04 13:31:39;;;;;;;33.00;13.00;;;;;;;;;;5113375;28;20016;-47
2022/04/04 13:34:05;;;;;;;24.90;10.23;;;;;;;;;;5113412;28;20080;-43
2022/04/04 13:36:31;;;;;;;56.08;17.58;;;;;;;;;;5115144;28;20151;-49
2022/04/04 13:38:58;;;;;;;21.08;9.10;;;;;;;;;;5117097;28;20024;-46
2022/04/04 13:41:26;;;;;;;11.70;6.88;;;;;;;;;;5117582;28;20043;-46
2022/04/04 13:43:52;;;;;;;13.18;7.00;;;;;;;;;;5117412;28;20020;-47
2022/04/04 13:46:19;;;;;;;15.68;8.05;;;;;;;;;;5117100;28;20020;-47
2022/04/04 13:48:47;;;;;;;13.80;7.15;;;;;;;;;;5098765;28;20469;-48
2022/04/04 13:51:18;;;;;;;11.50;8.13;;;;;;;;;;5116849;28;20055;-49
2022/04/04 13:53:44;;;;;;;7.97;5.97;;;;;;;;;;5117216;28;20089;-48
2022/04/04 13:56:10;;;;;;;7.63;5.60;;;;;;;;;;5117148;28;20031;-46
2022/04/04 13:58:37;;;;;;;9.27;5.85;;;;;;;;;;5116942;28;20386;-48
2022/04/04 14:01:03;;;;;;;12.68;6.60;;;;;;;;;;5117108;28;20024;-46
2022/04/04 14:03:31;;;;;;;16.77;6.57;;;;;;;;;;5116832;28;20044;-50
2022/04/04 14:06:01;;;;;;;9.93;6.53;;;;;;;;;;5116787;28;20067;-46
2022/04/04 14:08:27;;;;;;;14.65;9.60;;;;;;;;;;5098530;28;20028;-45
2022/04/04 14:10:54;;;;;;;11.93;6.43;;;;;;;;;;5116675;28;20027;-48
2022/04/04 14:13:21;;;;;;;11.10;7.97;;;;;;;;;;5116826;28;20022;-49
2022/04/04 14:15:49;;;;;;;13.38;8.80;;;;;;;;;;5116083;28;20023;-49
2022/04/04 14:18:16;;;;;;;7.40;6.10;;;;;;;;;;5114947;28;20440;-48
2022/04/04 14:20:42;;;;;;;8.32;6.05;;;;;;;;;;5115035;28;20047;-47
2022/04/04 14:23:08;;;;;;;8.52;5.85;;;;;;;;;;5114566;28;20076;-43
2022/04/04 14:25:37;;;;;;;28.20;14.55;;;;;;;;;;5114804;28;20022;-45
2022/04/04 14:28:03;;;;;;;16.75;9.98;;;;;;;;;;5115364;28;20024;-46
2022/04/04 14:30:29;;;;;;;37.08;18.88;;;;;;;;;;5115268;28;20018;-45
2022/04/04 14:32:55;;;;;;;14.93;8.48;;;;;;;;;;5114799;28;20356;-47
2022/04/04 14:35:22;;;;;;;12.63;8.38;;;;;;;;;;5114636;28;20016;-46
2022/04/04 14:37:48;;;;;;;32.40;18.98;;;;;;;;;;5111693;28;20028;-45
2022/04/04 14:40:15;;;;;;;46.75;26.45;;;;;;;;;;5113884;28;20032;-43